Time;durP1;ratioP1;P1;durP2;ratioP2;P2;SDS_P1;SDS_P2;PMS_P1;PMS_P2;Temp;Humidity;BMP_temperature;BMP_pressure;BME280_temperature;BME280_humidity;BME280_pressure;Samples;Min_cycle;Max_cycle;Signal;HPM_P1;HPM_P2
2023/11/15 00:02:32;;;;;;;3.20;2.60;;;12.20;99.90;;;;;;10341114;28;20231;-79
2023/11/15 00:07:55;;;;;;;2.87;2.40;;;12.30;99.90;;;;;;10325928;28;20203;-79
2023/11/15 00:13:18;;;;;;;2.83;2.63;;;12.30;99.90;;;;;;10334615;28;20215;-79
2023/11/15 00:18:39;;;;;;;2.60;2.13;;;12.20;99.90;;;;;;10325817;28;20195;-79
2023/11/15 00:37:23;;;;;;;1.83;1.73;;;12.30;99.90;;;;;;10334225;28;20179;-79
2023/11/15 00:42:44;;;;;;;2.40;2.20;;;12.20;99.90;;;;;;10308966;28;20242;-78
2023/11/15 00:48:05;;;;;;;1.77;1.67;;;12.20;99.90;;;;;;10320850;28;20207;-80
2023/11/15 00:53:27;;;;;;;2.60;1.97;;;12.10;99.90;;;;;;10291254;28;20243;-79
2023/11/15 00:58:47;;;;;;;2.07;1.87;;;12.20;99.90;;;;;;10327718;28;20286;-78
2023/11/15 01:04:09;;;;;;;1.80;1.70;;;12.10;99.90;;;;;;10300655;28;20224;-80
2023/11/15 01:09:33;;;;;;;1.60;1.50;;;12.10;99.90;;;;;;10296769;28;20199;-79
2023/11/15 01:14:54;;;;;;;2.70;1.90;;;12.10;99.90;;;;;;10320392;28;20708;-80
2023/11/15 01:20:15;;;;;;;1.80;1.70;;;12.10;99.90;;;;;;10295076;28;20676;-80
2023/11/15 01:25:37;;;;;;;2.07;1.90;;;12.00;99.90;;;;;;10282054;28;20215;-79
2023/11/15 01:30:57;;;;;;;3.60;2.00;;;12.00;99.90;;;;;;10322447;28;20226;-79
2023/11/15 01:36:18;;;;;;;1.80;1.70;;;12.00;99.90;;;;;;10330169;28;20188;-80
2023/11/15 01:41:47;;;;;;;6.93;2.33;;;12.00;99.90;;;;;;10305453;28;20219;-80
2023/11/15 01:47:08;;;;;;;2.60;1.70;;;12.00;99.90;;;;;;10310861;28;20287;-79
2023/11/15 01:52:29;;;;;;;3.43;2.10;;;11.90;99.90;;;;;;10333661;28;20219;-79
2023/11/15 01:57:54;;;;;;;3.67;1.80;;;11.80;99.90;;;;;;10315357;28;20322;-79
2023/11/15 02:03:14;;;;;;;3.83;1.83;;;11.80;99.90;;;;;;10301987;28;20219;-80
2023/11/15 02:08:36;;;;;;;4.27;2.17;;;11.80;99.90;;;;;;10300778;28;20278;-79
2023/11/15 02:13:58;;;;;;;2.27;2.10;;;11.80;99.90;;;;;;10313092;28;20212;-79
2023/11/15 02:19:19;;;;;;;3.73;1.80;;;10.80;99.90;;;;;;10321447;28;20219;-80
2023/11/15 02:24:41;;;;;;;2.50;1.77;;;11.80;99.90;;;;;;10307423;28;20227;-79
2023/11/15 02:30:02;;;;;;;2.73;1.80;;;11.80;99.90;;;;;;10311154;28;20792;-79
2023/11/15 02:35:23;;;;;;;2.70;2.33;;;11.70;99.90;;;;;;10304508;28;20192;-80
2023/11/15 02:40:45;;;;;;;1.90;1.80;;;11.70;99.90;;;;;;10320299;28;20307;-80
2023/11/15 02:46:06;;;;;;;2.23;2.00;;;11.60;99.90;;;;;;10305979;28;20298;-79
2023/11/15 02:51:27;;;;;;;2.27;2.17;;;11.60;99.90;;;;;;10329636;28;20223;-78
2023/11/15 02:56:49;;;;;;;4.60;2.07;;;11.50;99.90;;;;;;10325579;28;20661;-80
2023/11/15 03:02:10;;;;;;;3.33;2.50;;;11.50;99.90;;;;;;10301702;28;20227;-80
2023/11/15 03:07:31;;;;;;;2.60;2.40;;;11.50;99.90;;;;;;10324696;28;20285;-79
2023/11/15 03:12:53;;;;;;;2.33;2.13;;;11.40;99.90;;;;;;10326378;28;20224;-79
2023/11/15 03:18:13;;;;;;;4.70;2.10;;;11.50;99.90;;;;;;10308749;28;20676;-80
2023/11/15 03:23:34;;;;;;;2.70;2.53;;;11.40;99.90;;;;;;10329307;28;20227;-79
2023/11/15 03:28:57;;;;;;;2.00;1.90;;;11.40;99.90;;;;;;10298219;28;20677;-80
2023/11/15 03:34:18;;;;;;;2.50;2.30;;;11.40;99.90;;;;;;10311465;28;20595;-80
2023/11/15 03:39:39;;;;;;;2.00;1.90;;;11.50;99.90;;;;;;10318272;28;20293;-79
2023/11/15 03:45:00;;;;;;;2.20;2.00;;;11.60;99.90;;;;;;10322561;28;20212;-80
2023/11/15 03:50:21;;;;;;;2.80;2.47;;;11.60;99.90;;;;;;10313432;28;20199;-80
2023/11/15 03:55:42;;;;;;;2.30;2.10;;;11.50;99.90;;;;;;10311381;28;20207;-80
2023/11/15 04:01:05;;;;;;;2.80;2.57;;;11.50;99.90;;;;;;10332763;28;20211;-80
2023/11/15 04:06:27;;;;;;;3.50;3.10;;;11.50;99.90;;;;;;10309277;28;20566;-79
2023/11/15 04:11:48;;;;;;;3.00;2.80;;;11.50;99.90;;;;;;10328425;28;20696;-79
2023/11/15 04:17:10;;;;;;;3.03;2.40;;;11.50;99.90;;;;;;10292776;28;20204;-80
2023/11/15 04:22:31;;;;;;;2.83;2.60;;;11.40;99.90;;;;;;10333695;28;20747;-80
2023/11/15 04:27:52;;;;;;;6.17;3.00;;;11.40;99.90;;;;;;10286592;28;20215;-80
2023/11/15 04:33:14;;;;;;;3.00;2.67;;;11.40;99.90;;;;;;10322534;28;20231;-80
2023/11/15 04:38:36;;;;;;;2.67;2.47;;;11.30;99.90;;;;;;10297390;28;20200;-79
2023/11/15 04:43:57;;;;;;;4.27;3.90;;;11.30;99.90;;;;;;10318049;28;20624;-80
2023/11/15 04:49:19;;;;;;;9.57;5.13;;;11.30;99.90;;;;;;10317711;28;20684;-80
2023/11/15 04:54:39;;;;;;;5.60;3.70;;;11.30;99.90;;;;;;10313906;28;20301;-80
2023/11/15 05:00:00;;;;;;;8.20;4.27;;;11.30;99.90;;;;;;10328684;28;20195;-80
2023/11/15 05:05:22;;;;;;;7.10;4.10;;;11.30;99.90;;;;;;10313863;28;20227;-79
2023/11/15 05:10:42;;;;;;;4.50;2.20;;;11.30;99.90;;;;;;10311938;28;20215;-79
2023/11/15 05:16:03;;;;;;;2.03;1.80;;;11.40;99.90;;;;;;10325143;28;20669;-79
2023/11/15 05:21:25;;;;;;;2.40;2.20;;;11.40;99.90;;;;;;10324315;28;20231;-79
2023/11/15 05:26:46;;;;;;;3.10;2.60;;;11.40;99.90;;;;;;10323463;28;20215;-79
2023/11/15 05:32:07;;;;;;;2.93;2.70;;;11.30;99.90;;;;;;10319259;28;20219;-78
2023/11/15 05:37:29;;;;;;;5.43;2.47;;;11.20;99.90;;;;;;10311616;28;20619;-79
2023/11/15 05:42:49;;;;;;;4.00;3.27;;;11.20;99.90;;;;;;10317424;28;20219;-80
2023/11/15 05:48:10;;;;;;;3.20;3.00;;;11.20;99.90;;;;;;10293769;28;20946;-80
2023/11/15 05:53:32;;;;;;;3.50;3.13;;;11.20;99.90;;;;;;10331377;28;20230;-77
2023/11/15 05:58:53;;;;;;;4.03;3.47;;;11.20;99.90;;;;;;10307195;28;20199;-79
2023/11/15 06:04:13;;;;;;;4.20;3.33;;;11.20;99.90;;;;;;10335043;28;20346;-78
2023/11/15 06:09:35;;;;;;;4.80;3.17;;;11.20;99.90;;;;;;10313419;28;20225;-79
2023/11/15 06:14:56;;;;;;;3.30;3.10;;;11.20;99.90;;;;;;10317937;28;20208;-79
2023/11/15 06:20:17;;;;;;;6.33;3.30;;;11.20;99.90;;;;;;10293563;28;20211;-80
2023/11/15 06:25:39;;;;;;;4.07;3.87;;;11.30;99.90;;;;;;10330251;28;20301;-79
2023/11/15 06:30:59;;;;;;;5.07;4.77;;;11.20;99.90;;;;;;10298296;28;20223;-79
2023/11/15 06:36:20;;;;;;;5.07;4.67;;;11.00;99.90;;;;;;10318081;28;20223;-76
2023/11/15 06:41:42;;;;;;;4.77;4.50;;;;;;;;;;10316464;28;20215;-79
2023/11/15 06:47:03;;;;;;;5.47;5.07;;;10.90;99.90;;;;;;10312606;28;20207;-79
2023/11/15 06:52:25;;;;;;;4.20;3.97;;;10.90;99.90;;;;;;10308123;28;20222;-78
2023/11/15 06:57:47;;;;;;;7.67;5.27;;;10.90;99.90;;;;;;10311841;28;20204;-78
2023/11/15 07:03:12;;;;;;;5.83;5.40;;;10.90;99.90;;;;;;10290019;28;20322;-77
2023/11/15 07:08:33;;;;;;;7.33;6.80;;;10.80;99.90;;;;;;10308339;28;20263;-78
2023/11/15 07:13:55;;;;;;;6.17;5.80;;;10.80;99.90;;;;;;10315108;28;20219;-79
2023/11/15 07:19:18;;;;;;;7.10;4.37;;;10.60;99.90;;;;;;10307062;28;20239;-78
2023/11/15 07:24:41;;;;;;;4.37;3.97;;;10.50;99.90;;;;;;10320146;28;20219;-78
2023/11/15 07:30:04;;;;;;;8.67;5.40;;;10.50;99.90;;;;;;10304031;28;20366;-78
2023/11/15 07:35:25;;;;;;;5.00;4.50;;;10.40;99.90;;;;;;10326330;28;20206;-78
2023/11/15 07:40:48;;;;;;;5.23;4.73;;;10.40;99.90;;;;;;10304185;28;20219;-79
2023/11/15 07:46:10;;;;;;;7.80;5.10;;;10.40;99.90;;;;;;10337934;28;20298;-79
2023/11/15 07:51:31;;;;;;;5.03;4.53;;;10.50;99.90;;;;;;10302170;28;20216;-78
2023/11/15 07:56:51;;;;;;;5.70;5.20;;;10.50;99.90;;;;;;10345874;28;20203;-78
2023/11/15 08:02:13;;;;;;;5.03;4.73;;;10.70;99.90;;;;;;10304616;28;20223;-78
2023/11/15 08:07:36;;;;;;;5.40;4.90;;;10.90;99.90;;;;;;10323492;28;20187;-78
2023/11/15 08:12:56;;;;;;;5.70;5.20;;;10.90;99.90;;;;;;10312812;28;20776;-78
2023/11/15 08:18:18;;;;;;;8.97;5.50;;;10.90;99.90;;;;;;10315987;28;20200;-78
2023/11/15 08:23:39;;;;;;;5.97;5.00;;;10.90;99.90;;;;;;10308618;28;20219;-78
2023/11/15 08:28:59;;;;;;;5.83;4.97;;;11.10;99.90;;;;;;10323552;28;20204;-78
2023/11/15 08:34:21;;;;;;;4.87;4.20;;;11.20;99.90;;;;;;10311050;28;20275;-80
2023/11/15 08:39:42;;;;;;;6.13;5.63;;;11.20;99.90;;;;;;10317205;28;20204;-80
2023/11/15 08:45:06;;;;;;;7.50;4.77;;;11.20;99.90;;;;;;10314082;28;20259;-80
2023/11/15 08:50:28;;;;;;;4.80;4.30;;;11.30;99.90;;;;;;10320086;28;20195;-80
2023/11/15 08:55:49;;;;;;;6.77;4.80;;;11.40;99.90;;;;;;10331690;28;20322;-80
2023/11/15 09:01:10;;;;;;;5.80;3.90;;;11.40;99.90;;;;;;10315419;28;20222;-80
2023/11/15 09:06:31;;;;;;;7.90;5.10;;;11.30;99.90;;;;;;10330543;28;20215;-80
2023/11/15 09:11:56;;;;;;;4.53;4.23;;;11.40;99.90;;;;;;10324328;28;20231;-80
2023/11/15 09:17:17;;;;;;;5.27;4.00;;;11.50;99.90;;;;;;10314448;28;20203;-80
2023/11/15 09:22:39;;;;;;;6.43;4.30;;;11.70;99.90;;;;;;10334048;28;20230;-80
2023/11/15 09:28:02;;;;;;;4.17;3.40;;;11.80;99.90;;;;;;10334914;28;20232;-80
2023/11/15 09:33:22;;;;;;;3.00;2.90;;;12.00;99.90;;;;;;10321080;28;20314;-80
2023/11/15 09:38:45;;;;;;;3.73;3.33;;;12.00;99.90;;;;;;10334276;28;20689;-80
2023/11/15 09:44:10;;;;;;;3.83;3.40;;;11.90;99.90;;;;;;10333636;28;20223;-80
2023/11/15 09:49:34;;;;;;;3.90;3.40;;;11.90;99.90;;;;;;10331503;28;20206;-80
2023/11/15 09:54:59;;;;;;;2.83;2.63;;;12.10;99.90;;;;;;10328974;28;20235;-80
2023/11/15 10:00:21;;;;;;;3.70;3.40;;;12.20;99.90;;;;;;10326217;28;20196;-80
2023/11/15 10:05:42;;;;;;;4.30;3.43;;;12.30;99.90;;;;;;10339645;28;20215;-79
2023/11/15 10:11:06;;;;;;;2.90;2.77;;;12.40;99.90;;;;;;10340146;28;20222;-80
2023/11/15 10:16:30;;;;;;;2.70;2.30;;;12.50;99.90;;;;;;10320902;28;20763;-79
2023/11/15 10:21:58;;;;;;;3.30;3.03;;;12.50;99.90;;;;;;10325814;28;20234;-80
2023/11/15 10:27:20;;;;;;;3.30;2.90;;;12.60;99.90;;;;;;10322205;28;20223;-80
2023/11/15 10:32:41;;;;;;;2.53;2.43;;;12.50;99.90;;;;;;10325234;28;20222;-81
2023/11/15 10:38:02;;;;;;;2.70;2.17;;;12.60;99.90;;;;;;10329087;28;20249;-80
2023/11/15 10:43:24;;;;;;;2.90;2.40;;;12.60;99.90;;;;;;10334142;28;20638;-81
2023/11/15 10:48:47;;;;;;;2.70;2.53;;;12.70;99.90;;;;;;10324785;28;20199;-81
2023/11/15 10:54:11;;;;;;;2.50;2.30;;;12.80;99.90;;;;;;10335941;28;20220;-81
2023/11/15 10:59:35;;;;;;;3.10;2.17;;;12.90;99.90;;;;;;10319726;28;20664;-80
2023/11/15 11:04:57;;;;;;;2.47;1.93;;;12.80;99.90;;;;;;10328102;28;20302;-80
2023/11/15 11:10:24;;;;;;;2.27;1.60;;;12.90;99.90;;;;;;10327682;28;20241;-81
2023/11/15 11:15:47;;;;;;;2.43;2.23;;;13.00;99.90;;;;;;10326282;28;20199;-81
2023/11/15 11:21:12;;;;;;;2.63;2.47;;;13.00;99.90;;;;;;10337845;28;20223;-81
2023/11/15 11:26:36;;;;;;;2.97;2.10;;;13.00;99.90;;;;;;10335840;28;20238;-81
2023/11/15 11:32:20;;;;;;;3.83;1.90;;;12.90;99.90;;;;;;10326545;28;20839;-81
2023/11/15 11:37:44;;;;;;;2.13;2.00;;;12.90;99.90;;;;;;10329742;28;20677;-81
2023/11/15 11:43:29;;;;;;;1.87;1.77;;;12.80;99.90;;;;;;10320729;28;20219;-80
2023/11/15 11:48:59;;;;;;;4.20;1.80;;;12.80;99.90;;;;;;10342264;28;20218;-81
2023/11/15 11:54:23;;;;;;;1.90;1.80;;;12.70;99.90;;;;;;10312004;28;20302;-81
2023/11/15 11:59:59;;;;;;;2.30;2.00;;;12.70;99.90;;;;;;10338396;28;20218;-80
2023/11/15 12:05:23;;;;;;;2.40;1.90;;;12.70;99.90;;;;;;10321348;28;20216;-81
2023/11/15 12:10:44;;;;;;;4.83;2.00;;;12.70;99.90;;;;;;10337032;28;20219;-80
2023/11/15 12:16:05;;;;;;;2.40;1.53;;;12.70;99.90;;;;;;10336639;28;20191;-80
2023/11/15 12:21:27;;;;;;;1.90;1.77;;;12.70;99.90;;;;;;10334989;28;20231;-79
2023/11/15 12:26:48;;;;;;;2.50;1.83;;;12.70;99.90;;;;;;10302343;28;20219;-81
2023/11/15 12:32:08;;;;;;;3.10;1.50;;;12.80;99.90;;;;;;10333775;28;20216;-81
2023/11/15 12:37:32;;;;;;;3.03;1.50;;;12.80;99.90;;;;;;10308610;28;20207;-81
2023/11/15 12:42:56;;;;;;;1.80;1.70;;;12.80;99.90;;;;;;10328279;28;20314;-80
2023/11/15 12:48:17;;;;;;;1.73;1.40;;;12.80;99.90;;;;;;10311594;28;20203;-81
2023/11/15 12:53:41;;;;;;;3.43;2.77;;;12.90;99.90;;;;;;10320189;28;20216;-80
2023/11/15 12:59:02;;;;;;;1.87;1.77;;;13.10;99.90;;;;;;10316077;28;20203;-80
2023/11/15 13:04:22;;;;;;;1.77;1.60;;;13.20;99.90;;;;;;10301360;28;20300;-81
2023/11/15 13:09:45;;;;;;;1.73;1.60;;;13.30;99.90;;;;;;10321210;28;20198;-81
2023/11/15 13:15:11;;;;;;;4.77;2.00;;;13.30;99.90;;;;;;10314788;28;20216;-81
2023/11/15 13:20:35;;;;;;;2.30;1.93;;;13.40;99.90;;;;;;10325040;28;20227;-81
2023/11/15 13:25:57;;;;;;;1.80;1.70;;;13.40;99.90;;;;;;10307835;28;20216;-80
2023/11/15 13:31:23;;;;;;;2.20;1.40;;;13.40;99.90;;;;;;10315972;28;20215;-81
2023/11/15 13:36:43;;;;;;;1.50;1.13;;;13.60;99.90;;;;;;10287675;28;20199;-82
2023/11/15 13:42:07;;;;;;;1.40;1.30;;;13.50;99.90;;;;;;10335369;28;20223;-81
2023/11/15 13:47:29;;;;;;;1.90;1.70;;;13.60;99.90;;;;;;10340690;28;20305;-81
2023/11/15 13:52:50;;;;;;;2.13;1.87;;;13.50;99.90;;;;;;10299765;28;20227;-81
2023/11/15 13:58:12;;;;;;;4.60;1.80;;;13.40;99.90;;;;;;10336224;28;20519;-81
2023/11/15 14:03:33;;;;;;;3.93;1.77;;;13.40;99.90;;;;;;10320892;28;20207;-81
2023/11/15 14:08:55;;;;;;;5.00;2.10;;;13.30;99.90;;;;;;10332200;28;20200;-81
2023/11/15 14:14:17;;;;;;;2.03;1.80;;;13.20;99.90;;;;;;10306429;28;20700;-80
2023/11/15 14:19:39;;;;;;;4.00;2.00;;;13.10;99.90;;;;;;10329154;28;20195;-80
2023/11/15 14:25:03;;;;;;;3.90;3.60;;;13.00;99.90;;;;;;10323855;28;20231;-81
2023/11/15 14:30:25;;;;;;;3.40;2.30;;;12.90;99.90;;;;;;10314969;28;20301;-80
2023/11/15 14:35:45;;;;;;;4.30;1.97;;;12.90;99.90;;;;;;10328063;28;20191;-81
2023/11/15 14:41:06;;;;;;;5.63;2.40;;;12.90;99.90;;;;;;10325415;28;20227;-80
2023/11/15 14:46:30;;;;;;;3.80;1.87;;;12.90;99.90;;;;;;10315695;28;20640;-81
2023/11/15 14:52:07;;;;;;;4.70;2.40;;;12.90;99.90;;;;;;10320404;28;20219;-81
2023/11/15 14:57:28;;;;;;;2.90;1.90;;;12.80;99.90;;;;;;10315285;28;20199;-80
2023/11/15 15:02:50;;;;;;;4.53;1.97;;;12.70;99.90;;;;;;10330721;28;20305;-81
2023/11/15 15:08:11;;;;;;;1.60;1.50;;;12.70;99.90;;;;;;10316117;28;20215;-81
2023/11/15 15:13:32;;;;;;;1.83;1.73;;;12.60;99.90;;;;;;10330517;28;20207;-81
2023/11/15 15:18:54;;;;;;;3.97;1.80;;;12.60;99.90;;;;;;10330800;28;20187;-80
2023/11/15 15:24:15;;;;;;;2.90;2.27;;;12.50;99.90;;;;;;10325783;28;20219;-81
2023/11/15 15:29:35;;;;;;;2.00;1.73;;;12.40;99.90;;;;;;10332109;28;20248;-81
2023/11/15 15:34:58;;;;;;;2.50;2.07;;;12.30;99.90;;;;;;10317647;28;20780;-80
2023/11/15 15:40:22;;;;;;;1.77;1.67;;;12.30;99.90;;;;;;10319767;28;20199;-81
2023/11/15 15:45:45;;;;;;;2.43;1.70;;;12.20;99.90;;;;;;10313801;28;20689;-81
2023/11/15 15:51:07;;;;;;;2.20;1.90;;;12.20;99.90;;;;;;10333834;28;20692;-80
2023/11/15 15:56:29;;;;;;;3.57;1.80;;;12.10;99.90;;;;;;10331046;28;20310;-81
2023/11/15 16:01:49;;;;;;;2.30;1.80;;;12.00;99.90;;;;;;10342824;28;20227;-80
2023/11/15 16:07:12;;;;;;;2.53;2.30;;;12.00;99.90;;;;;;10329087;28;20227;-81
2023/11/15 16:12:34;;;;;;;7.00;2.00;;;12.00;99.90;;;;;;10338180;28;20219;-80
2023/11/15 16:17:54;;;;;;;3.80;1.90;;;12.10;99.90;;;;;;10338979;28;20206;-80
2023/11/15 16:23:17;;;;;;;4.93;2.20;;;12.00;99.90;;;;;;10333461;28;20238;-81
2023/11/15 16:28:37;;;;;;;1.80;1.70;;;12.00;99.90;;;;;;10322983;28;20227;-81
2023/11/15 16:33:58;;;;;;;2.03;1.90;;;12.00;99.90;;;;;;10331834;28;20219;-81
2023/11/15 16:39:24;;;;;;;6.00;2.30;;;12.00;99.90;;;;;;10339979;28;20282;-81
2023/11/15 16:44:44;;;;;;;7.00;2.27;;;11.90;99.90;;;;;;10335473;28;20223;-81
2023/11/15 16:50:07;;;;;;;4.33;2.30;;;11.90;99.90;;;;;;10332968;28;20207;-81
2023/11/15 16:55:29;;;;;;;2.67;2.10;;;11.80;99.90;;;;;;10335709;28;20753;-81
2023/11/15 17:00:50;;;;;;;2.53;2.00;;;11.80;99.90;;;;;;10326795;28;20227;-81
2023/11/15 17:06:10;;;;;;;4.37;2.50;;;11.70;99.90;;;;;;10320673;28;20214;-80
2023/11/15 17:11:33;;;;;;;6.07;2.40;;;11.60;99.90;;;;;;10320751;28;20215;-81
2023/11/15 17:16:53;;;;;;;3.17;2.20;;;11.60;99.90;;;;;;10335793;28;20263;-80
2023/11/15 17:22:14;;;;;;;2.50;2.30;;;11.50;99.90;;;;;;10326582;28;20709;-81
2023/11/15 17:27:35;;;;;;;3.63;2.70;;;11.50;99.90;;;;;;10328909;28;20671;-80
2023/11/15 17:32:59;;;;;;;4.93;2.47;;;11.50;99.90;;;;;;10336563;28;20601;-81
2023/11/15 17:38:19;;;;;;;3.30;2.57;;;11.40;99.90;;;;;;10308857;28;20210;-81
2023/11/15 17:43:41;;;;;;;2.73;2.53;;;11.40;99.90;;;;;;10336607;28;20223;-81
2023/11/15 17:49:03;;;;;;;3.13;2.77;;;11.50;99.90;;;;;;10335949;28;20330;-81
2023/11/15 17:54:24;;;;;;;5.17;3.67;;;11.40;99.90;;;;;;10339873;28;20266;-81
2023/11/15 17:59:46;;;;;;;2.43;2.20;;;11.40;99.90;;;;;;10349073;28;20195;-80
2023/11/15 18:05:12;;;;;;;4.60;2.10;;;11.40;99.90;;;;;;10346123;28;20723;-81
2023/11/15 18:10:33;;;;;;;3.77;2.60;;;11.50;99.90;;;;;;10321962;28;20192;-80
2023/11/15 18:15:55;;;;;;;2.40;2.03;;;11.50;99.90;;;;;;10320799;28;20223;-81
2023/11/15 18:21:15;;;;;;;3.23;2.93;;;11.50;99.90;;;;;;10335821;28;20327;-81
2023/11/15 18:26:38;;;;;;;2.80;2.13;;;11.50;99.90;;;;;;10334966;28;20602;-81
2023/11/15 18:32:01;;;;;;;5.40;3.13;;;11.50;99.90;;;;;;10334373;28;20231;-79
2023/11/15 18:37:21;;;;;;;2.87;2.37;;;11.50;99.90;;;;;;10338389;28;20929;-79
2023/11/15 18:42:42;;;;;;;4.23;3.30;;;11.40;99.90;;;;;;10339037;23;20230;-79
2023/11/15 18:48:05;;;;;;;2.80;2.60;;;11.40;99.90;;;;;;10324655;28;20215;-78
2023/11/15 18:53:26;;;;;;;3.93;2.40;;;11.30;99.90;;;;;;10306391;28;20219;-78
2023/11/15 18:58:46;;;;;;;2.30;2.10;;;11.30;99.90;;;;;;10334135;28;20191;-78
2023/11/15 19:04:09;;;;;;;2.97;2.37;;;11.20;99.90;;;;;;10318012;28;20227;-78
2023/11/15 19:09:33;;;;;;;2.73;2.13;;;11.20;99.90;;;;;;10330346;28;20203;-78
2023/11/15 19:14:54;;;;;;;4.40;2.43;;;11.20;99.90;;;;;;10331594;28;20708;-78
2023/11/15 19:20:17;;;;;;;3.30;1.97;;;11.20;99.90;;;;;;10312054;28;20208;-78
2023/11/15 19:25:39;;;;;;;6.23;2.83;;;11.20;99.90;;;;;;10332122;28;20230;-78
2023/11/15 19:31:00;;;;;;;3.03;2.40;;;11.30;99.90;;;;;;10296215;28;20208;-78
2023/11/15 19:36:21;;;;;;;5.23;2.40;;;11.30;99.90;;;;;;10323080;28;20219;-78
2023/11/15 19:41:43;;;;;;;2.63;1.90;;;11.30;99.90;;;;;;10314053;28;20203;-78
2023/11/15 19:47:03;;;;;;;2.40;2.10;;;11.30;99.90;;;;;;10329966;28;20223;-78
2023/11/15 19:52:26;;;;;;;6.13;3.40;;;11.20;99.90;;;;;;10293864;28;20231;-78
2023/11/15 19:57:46;;;;;;;3.00;2.53;;;11.10;99.90;;;;;;10333255;28;20223;-78
2023/11/15 20:03:12;;;;;;;3.67;2.30;;;11.10;99.90;;;;;;10339359;28;20720;-78
2023/11/15 20:08:36;;;;;;;2.80;2.20;;;11.10;99.90;;;;;;10364549;28;20246;-78
2023/11/15 20:13:57;;;;;;;3.37;2.83;;;11.10;99.90;;;;;;10298441;28;20224;-78
2023/11/15 20:19:17;;;;;;;7.07;2.70;;;11.10;99.90;;;;;;10331126;28;20279;-77
2023/11/15 20:24:40;;;;;;;3.73;2.50;;;11.10;99.90;;;;;;10284128;28;20227;-77
2023/11/15 20:30:00;;;;;;;3.70;2.23;;;11.00;99.90;;;;;;10297703;28;20203;-79
2023/11/15 20:35:21;;;;;;;4.70;2.53;;;11.00;99.90;;;;;;10322004;28;20223;-78
2023/11/15 20:40:43;;;;;;;2.47;2.27;;;10.90;99.90;;;;;;10324260;28;20210;-78
2023/11/15 20:46:08;;;;;;;3.87;3.50;;;10.90;99.90;;;;;;10302276;28;20235;-79
2023/11/15 20:51:30;;;;;;;5.17;2.50;;;10.90;99.90;;;;;;10320159;28;20263;-79
2023/11/15 20:56:52;;;;;;;4.53;2.77;;;10.80;99.90;;;;;;10312432;28;20680;-78
2023/11/15 21:02:14;;;;;;;3.60;2.63;;;10.80;99.90;;;;;;10296183;28;20217;-78
2023/11/15 21:07:35;;;;;;;4.60;2.53;;;10.70;99.90;;;;;;10294563;28;20219;-79
2023/11/15 21:12:57;;;;;;;3.53;2.93;;;10.70;99.90;;;;;;10274870;28;20511;-78
2023/11/15 21:18:18;;;;;;;6.37;3.27;;;10.70;99.90;;;;;;10306097;28;20200;-78
2023/11/15 21:23:40;;;;;;;4.93;3.20;;;10.70;99.90;;;;;;10300850;28;20219;-78
2023/11/15 21:29:08;;;;;;;3.47;2.57;;;10.60;99.90;;;;;;10272816;28;20602;-79
2023/11/15 21:34:29;;;;;;;2.77;2.57;;;10.70;99.90;;;;;;10328334;28;20301;-79
2023/11/15 21:39:50;;;;;;;3.67;3.00;;;10.70;99.90;;;;;;10336132;28;20195;-79
2023/11/15 21:45:13;;;;;;;3.43;2.70;;;10.60;99.90;;;;;;10318185;28;20231;-79
2023/11/15 21:50:34;;;;;;;4.53;2.80;;;10.60;99.90;;;;;;10287394;28;20203;-78
2023/11/15 21:55:57;;;;;;;3.83;3.33;;;10.60;99.90;;;;;;10327627;28;20307;-79
2023/11/15 22:01:19;;;;;;;3.37;2.90;;;10.60;99.90;;;;;;10299212;28;20199;-79
2023/11/15 22:06:40;;;;;;;4.60;2.70;;;10.60;99.90;;;;;;10331551;28;20305;-78
2023/11/15 22:12:00;;;;;;;4.83;3.77;;;10.60;99.90;;;;;;10331290;28;20268;-78
2023/11/15 22:17:22;;;;;;;4.03;3.00;;;10.60;99.90;;;;;;10318208;28;20207;-79
2023/11/15 22:22:43;;;;;;;2.80;2.57;;;10.60;99.90;;;;;;10332790;28;20215;-78
2023/11/15 22:28:04;;;;;;;5.47;3.20;;;10.70;99.90;;;;;;10330349;28;20247;-79
2023/11/15 22:33:25;;;;;;;3.80;2.33;;;10.70;99.90;;;;;;10331920;28;20754;-78
2023/11/15 22:38:46;;;;;;;4.03;2.87;;;10.80;99.90;;;;;;10329632;28;20199;-78
2023/11/15 22:44:06;;;;;;;2.77;2.50;;;10.90;99.90;;;;;;10315825;28;20591;-78
2023/11/15 22:49:29;;;;;;;3.23;2.83;;;10.90;99.90;;;;;;10329416;28;20215;-79
2023/11/15 22:54:50;;;;;;;2.47;2.27;;;10.90;99.90;;;;;;10330626;28;20222;-79
2023/11/15 23:00:24;;;;;;;4.60;2.37;;;10.90;99.90;;;;;;10332822;28;20277;-79
2023/11/15 23:05:47;;;;;;;2.67;2.47;;;10.90;99.90;;;;;;10322499;28;20215;-78
2023/11/15 23:11:09;;;;;;;4.03;3.07;;;10.90;99.90;;;;;;10335156;28;20200;-78
2023/11/15 23:16:30;;;;;;;8.43;3.27;;;10.90;99.90;;;;;;10336584;28;20572;-79
2023/11/15 23:21:52;;;;;;;4.30;3.50;;;11.00;99.90;;;;;;10334143;28;20542;-78
2023/11/15 23:27:15;;;;;;;3.83;2.60;;;11.10;99.90;;;;;;10303405;28;20617;-78
2023/11/15 23:32:36;;;;;;;4.20;2.47;;;11.10;99.90;;;;;;10341290;28;20428;-78
2023/11/15 23:37:58;;;;;;;5.60;3.00;;;11.20;99.90;;;;;;10343282;28;20614;-79
2023/11/15 23:43:19;;;;;;;3.53;2.90;;;11.20;99.90;;;;;;10354983;28;20250;-78
2023/11/15 23:48:40;;;;;;;3.40;3.10;;;11.10;99.90;;;;;;10342271;28;20203;-78
2023/11/15 23:54:02;;;;;;;4.50;2.97;;;11.10;99.90;;;;;;10339250;28;20211;-79
2023/11/15 23:59:23;;;;;;;5.60;2.90;;;10.90;99.90;;;;;;10328787;28;20671;-79
